createdAt,value
2022-12-01T00:00:59.080Z,55.91
2022-12-01T00:03:25.768Z,56.58
2022-12-01T00:06:02.965Z,56.47
2022-12-01T00:08:29.656Z,56.66
2022-12-01T00:10:56.427Z,55.77
2022-12-01T00:13:23.104Z,56.42
2022-12-01T00:15:49.751Z,56.17
2022-12-01T00:18:16.411Z,55.89
2022-12-01T00:20:43.040Z,55.71
2022-12-01T00:23:09.684Z,55.64
2022-12-01T00:25:36.383Z,55.44
2022-12-01T00:28:02.994Z,55.90
2022-12-01T00:30:29.584Z,55.82
2022-12-01T00:32:56.218Z,55.82
2022-12-01T00:35:22.901Z,55.19
2022-12-01T00:37:49.536Z,55.31
2022-12-01T00:40:16.157Z,55.63
2022-12-01T00:42:42.870Z,55.35
2022-12-01T00:45:10.132Z,55.04
2022-12-01T00:47:36.889Z,53.97
2022-12-01T00:50:03.605Z,54.30
2022-12-01T00:52:30.213Z,54.35
2022-12-01T00:54:56.862Z,53.98
2022-12-01T00:57:23.512Z,53.98
2022-12-01T00:59:50.412Z,54.89
2022-12-01T01:02:17.359Z,55.15
2022-12-01T01:04:44.047Z,55.57
2022-12-01T01:07:10.646Z,55.82
2022-12-01T01:09:37.283Z,56.08
2022-12-01T01:12:03.954Z,55.98
2022-12-01T01:14:30.571Z,55.96
2022-12-01T01:16:57.353Z,55.70
2022-12-01T01:19:24.011Z,55.87
2022-12-01T01:21:50.628Z,55.46
2022-12-01T01:24:17.416Z,55.07
2022-12-01T01:26:44.141Z,55.85
2022-12-01T01:29:10.805Z,55.41
2022-12-01T01:31:37.465Z,55.32
2022-12-01T01:34:04.065Z,56.32
2022-12-01T01:36:30.676Z,56.21
2022-12-01T01:38:57.373Z,56.21
2022-12-01T01:41:24.031Z,56.30
2022-12-01T01:43:57.532Z,56.30
2022-12-01T01:46:34.009Z,56.42
2022-12-01T01:49:11.183Z,55.94
2022-12-01T01:51:42.246Z,56.18
2022-12-01T01:54:18.659Z,56.38
2022-12-01T01:56:45.270Z,56.41
2022-12-01T01:59:12.638Z,56.61
2022-12-01T02:01:39.432Z,57.35
2022-12-01T02:04:06.143Z,57.10
2022-12-01T02:06:32.820Z,56.75
2022-12-01T02:08:59.531Z,56.76
2022-12-01T02:11:31.153Z,56.58
2022-12-01T02:14:14.378Z,57.28
2022-12-01T02:16:50.099Z,56.96
2022-12-01T02:19:45.012Z,56.63
2022-12-01T02:22:37.685Z,55.77
2022-12-01T02:25:13.055Z,56.09
2022-12-01T02:28:06.403Z,56.73
2022-12-01T02:30:43.528Z,55.78
2022-12-01T02:33:15.731Z,55.91
2022-12-01T02:35:59.736Z,55.33
2022-12-01T02:38:36.352Z,55.64
2022-12-01T02:41:27.365Z,55.18
2022-12-01T02:44:08.952Z,54.11
2022-12-01T02:46:41.430Z,54.22
2022-12-01T02:49:19.526Z,54.16
2022-12-01T02:51:46.171Z,54.11
2022-12-01T02:54:13.647Z,53.40
2022-12-01T02:56:40.245Z,53.79
2022-12-01T02:59:10.946Z,53.98
2022-12-01T03:01:46.758Z,54.14
2022-12-01T03:04:46.443Z,54.31
2022-12-01T03:07:36.270Z,53.80
2022-12-01T03:10:40.475Z,54.25
2022-12-01T03:13:13.830Z,53.61
2022-12-01T03:15:58.948Z,54.12
2022-12-01T03:18:43.672Z,54.13
2022-12-01T03:21:17.828Z,54.21
2022-12-01T03:23:47.989Z,54.13
2022-12-01T03:26:16.522Z,53.81
2022-12-01T03:28:46.114Z,53.55
2022-12-01T03:31:15.852Z,53.42
2022-12-01T03:34:05.237Z,53.82
2022-12-01T03:36:45.542Z,53.98
2022-12-01T03:39:13.328Z,53.76
2022-12-01T03:41:45.658Z,52.85
2022-12-01T03:44:20.267Z,52.66
2022-12-01T03:46:53.868Z,52.24
2022-12-01T03:49:20.575Z,52.35
2022-12-01T03:52:10.542Z,52.87
2022-12-01T03:55:09.416Z,52.36
2022-12-01T03:58:12.176Z,52.61
2022-12-01T04:00:38.804Z,53.07
2022-12-01T04:03:05.629Z,53.21
2022-12-01T04:05:33.434Z,53.21
2022-12-01T04:08:00.396Z,53.21
2022-12-01T04:10:27.147Z,53.12
2022-12-01T04:12:53.764Z,53.24
2022-12-01T04:15:20.406Z,53.26
2022-12-01T04:17:47.048Z,52.09
2022-12-01T04:20:14.285Z,51.85
2022-12-01T04:22:40.927Z,52.09
2022-12-01T04:25:07.912Z,51.78
2022-12-01T04:27:34.594Z,50.92
2022-12-01T04:30:01.194Z,51.29
2022-12-01T04:32:27.824Z,52.03
2022-12-01T04:34:54.629Z,51.54
2022-12-01T04:37:21.223Z,51.47
2022-12-01T04:39:48.209Z,51.63
2022-12-01T04:42:15.260Z,51.61
2022-12-01T04:44:41.894Z,50.93
2022-12-01T04:47:08.602Z,50.97
2022-12-01T04:49:35.349Z,50.50
2022-12-01T04:52:02.003Z,50.41
2022-12-01T04:54:28.645Z,51.09
2022-12-01T04:56:55.248Z,51.11
2022-12-01T04:59:21.879Z,51.41
2022-12-01T05:01:48.571Z,51.35
2022-12-01T05:04:15.257Z,51.31
2022-12-01T05:06:41.887Z,51.06
2022-12-01T05:09:12.187Z,51.11
2022-12-01T05:11:42.374Z,50.12
2022-12-01T05:14:09.007Z,50.88
2022-12-01T05:16:35.778Z,50.85
2022-12-01T05:19:04.387Z,50.79
2022-12-01T05:21:30.985Z,50.81
2022-12-01T05:23:57.572Z,50.30
2022-12-01T05:26:24.209Z,49.65
2022-12-01T05:28:53.367Z,49.88
2022-12-01T05:31:20.011Z,50.91
2022-12-01T05:33:46.965Z,51.92
2022-12-01T05:36:13.604Z,50.60
2022-12-01T05:38:40.301Z,50.83
2022-12-01T05:41:06.947Z,50.26
2022-12-01T05:43:33.591Z,50.65
2022-12-01T05:46:00.299Z,49.40
2022-12-01T05:48:26.933Z,50.19
2022-12-01T05:50:53.580Z,49.47
2022-12-01T05:53:20.200Z,49.16
2022-12-01T05:55:46.976Z,49.09
2022-12-01T05:58:13.574Z,49.03
2022-12-01T06:00:45.689Z,48.61
2022-12-01T06:03:13.376Z,48.21
2022-12-01T06:05:40.292Z,48.21
2022-12-01T06:08:07.129Z,48.37
2022-12-01T06:10:33.732Z,48.44
2022-12-01T06:13:00.385Z,48.51
2022-12-01T06:15:27.301Z,48.39
2022-12-01T06:17:53.929Z,48.90
2022-12-01T06:20:20.541Z,47.69
2022-12-01T06:22:48.194Z,48.03
2022-12-01T06:25:14.865Z,48.50
2022-12-01T06:27:41.539Z,47.92
2022-12-01T06:30:08.734Z,48.05
2022-12-01T06:32:35.932Z,47.83
2022-12-01T06:35:02.717Z,47.54
2022-12-01T06:37:29.336Z,47.48
2022-12-01T06:39:56.097Z,47.49
2022-12-01T06:42:22.723Z,47.84
2022-12-01T06:44:49.325Z,47.29
2022-12-01T06:47:15.949Z,47.65
2022-12-01T06:49:42.584Z,48.02
2022-12-01T06:52:09.653Z,47.97
2022-12-01T06:54:36.307Z,48.06
2022-12-01T06:57:02.905Z,48.58
2022-12-01T06:59:29.526Z,48.99
2022-12-01T07:01:56.336Z,48.99
2022-12-01T07:04:23.034Z,49.03
2022-12-01T07:06:49.659Z,48.92
2022-12-01T07:09:16.260Z,48.41
2022-12-01T07:11:42.921Z,48.71
2022-12-01T07:14:16.448Z,48.50
2022-12-01T07:16:43.161Z,47.51
2022-12-01T07:19:09.944Z,47.87
2022-12-01T07:21:36.616Z,48.09
2022-12-01T07:24:05.660Z,47.38
2022-12-01T07:26:32.265Z,47.87
2022-12-01T07:28:58.868Z,47.50
2022-12-01T07:31:25.571Z,47.61
2022-12-01T07:33:52.505Z,48.16
2022-12-01T07:36:19.092Z,47.75
2022-12-01T07:38:45.753Z,47.45
2022-12-01T07:41:16.338Z,47.02
2022-12-01T07:43:43.004Z,47.25
2022-12-01T07:46:21.736Z,48.03
2022-12-01T07:48:49.258Z,47.35
2022-12-01T07:51:15.961Z,48.03
2022-12-01T07:53:43.329Z,47.08
2022-12-01T07:56:10.000Z,47.98
2022-12-01T07:58:36.663Z,47.42
2022-12-01T08:01:13.488Z,47.27
2022-12-01T08:03:40.297Z,48.55
2022-12-01T08:06:07.099Z,48.41
2022-12-01T08:08:34.700Z,48.12
2022-12-01T08:11:02.795Z,48.18
2022-12-01T08:13:29.447Z,47.33
2022-12-01T08:15:56.139Z,46.96
2022-12-01T08:18:23.066Z,46.66
2022-12-01T08:20:50.324Z,46.92
2022-12-01T08:23:17.121Z,46.33
2022-12-01T08:25:44.968Z,46.85
2022-12-01T08:28:11.697Z,46.38
2022-12-01T08:30:38.273Z,46.83
2022-12-01T08:33:04.936Z,46.68
2022-12-01T08:35:31.600Z,46.67
2022-12-01T08:37:58.253Z,46.67
2022-12-01T08:40:25.089Z,46.94
2022-12-01T08:42:52.088Z,46.73
2022-12-01T08:45:18.784Z,46.03
2022-12-01T08:47:46.451Z,45.76
2022-12-01T08:50:13.052Z,44.71
2022-12-01T08:52:39.649Z,44.71
2022-12-01T08:55:07.005Z,45.17
2022-12-01T08:57:33.670Z,45.11
2022-12-01T09:00:00.435Z,45.32
2022-12-01T09:02:27.165Z,45.67
2022-12-01T09:04:53.900Z,45.51
2022-12-01T09:07:26.148Z,44.92
2022-12-01T09:09:53.419Z,45.27
2022-12-01T09:12:20.059Z,46.06
2022-12-01T09:14:46.728Z,45.93
2022-12-01T09:17:13.707Z,46.61
2022-12-01T09:19:40.300Z,47.01
2022-12-01T09:22:06.940Z,46.50
2022-12-01T09:24:33.578Z,45.68
2022-12-01T09:27:00.171Z,45.48
2022-12-01T09:29:26.767Z,45.13
2022-12-01T09:31:55.644Z,44.56
2022-12-01T09:34:22.234Z,43.41
2022-12-01T09:36:49.156Z,43.27
2022-12-01T09:39:17.621Z,43.37
2022-12-01T09:41:48.934Z,44.09
2022-12-01T09:44:16.396Z,44.16
2022-12-01T09:47:06.139Z,44.41
2022-12-01T09:49:47.393Z,44.92
2022-12-01T09:52:16.898Z,44.96
2022-12-01T09:54:43.495Z,45.16
2022-12-01T09:57:31.822Z,44.99
2022-12-01T09:59:59.066Z,45.69
2022-12-01T10:02:31.582Z,45.25
2022-12-01T10:04:59.305Z,45.41
2022-12-01T10:07:32.054Z,45.40
2022-12-01T10:10:05.246Z,43.85
2022-12-01T10:12:33.934Z,44.53
2022-12-01T10:15:26.394Z,44.96
2022-12-01T10:18:21.973Z,44.08
2022-12-01T10:21:00.600Z,43.25
2022-12-01T10:23:36.152Z,42.89
2022-12-01T10:26:04.869Z,43.26
2022-12-01T10:28:39.261Z,42.84
2022-12-01T10:31:28.408Z,42.99
2022-12-01T10:33:54.956Z,42.59
2022-12-01T10:36:22.038Z,42.86
2022-12-01T10:38:48.662Z,42.75
2022-12-01T10:41:15.246Z,42.60
2022-12-01T10:43:47.461Z,42.96
2022-12-01T10:46:44.757Z,42.52
2022-12-01T10:49:15.132Z,42.29
2022-12-01T10:51:55.907Z,43.94
2022-12-01T10:54:23.948Z,43.92
2022-12-01T10:56:54.753Z,43.98
2022-12-01T10:59:31.598Z,43.67
2022-12-01T11:01:58.643Z,43.75
2022-12-01T11:04:52.619Z,43.53
2022-12-01T11:07:29.596Z,43.25
2022-12-01T11:10:05.036Z,43.80
2022-12-01T11:12:31.724Z,43.07
2022-12-01T11:14:58.325Z,42.47
2022-12-01T11:17:41.218Z,42.71
2022-12-01T11:20:27.707Z,43.58
2022-12-01T11:23:19.573Z,43.36
2022-12-01T11:25:58.376Z,43.08
2022-12-01T11:28:25.008Z,42.91
2022-12-01T11:30:58.485Z,42.80
2022-12-01T11:33:25.450Z,42.51
2022-12-01T11:35:53.091Z,42.61
2022-12-01T11:38:30.949Z,42.24
2022-12-01T11:40:57.745Z,43.45
2022-12-01T11:43:29.546Z,43.10
2022-12-01T11:45:57.188Z,42.34
2022-12-01T11:48:31.346Z,42.61
2022-12-01T11:51:01.922Z,42.74
2022-12-01T11:53:33.222Z,42.93
2022-12-01T11:56:19.833Z,44.20
2022-12-01T11:58:47.764Z,43.36
2022-12-01T12:01:21.824Z,43.19
2022-12-01T12:04:00.876Z,42.64
2022-12-01T12:06:41.160Z,42.79
2022-12-01T12:09:10.705Z,43.27
2022-12-01T12:11:44.038Z,42.66
2022-12-01T12:14:58.283Z,42.55
2022-12-01T12:17:52.385Z,42.70
2022-12-01T12:20:56.662Z,43.19
2022-12-01T12:23:32.495Z,43.15
2022-12-01T12:26:20.672Z,43.67
2022-12-01T12:29:02.516Z,43.75
2022-12-01T12:31:56.159Z,43.99
2022-12-01T12:34:35.197Z,44.68
2022-12-01T12:37:10.620Z,44.20
2022-12-01T12:39:50.850Z,44.03
2022-12-01T12:42:33.006Z,43.62
2022-12-01T12:45:07.376Z,44.08
2022-12-01T12:47:51.382Z,43.80
2022-12-01T12:50:27.645Z,43.41
2022-12-01T12:52:57.336Z,43.00
2022-12-01T12:55:30.673Z,42.45
2022-12-01T12:58:11.239Z,42.43
2022-12-01T13:00:40.701Z,42.31
2022-12-01T13:03:21.029Z,42.03
2022-12-01T13:05:54.292Z,42.54
2022-12-01T13:08:29.445Z,42.81
2022-12-01T13:11:00.838Z,43.54
2022-12-01T13:14:07.490Z,43.31
2022-12-01T13:16:37.023Z,42.60
2022-12-01T13:19:11.781Z,43.87
2022-12-01T13:21:41.012Z,43.54
2022-12-01T13:24:08.074Z,43.38
2022-12-01T13:26:35.371Z,43.93
2022-12-01T13:29:03.227Z,43.32
2022-12-01T13:31:29.907Z,43.19
2022-12-01T13:34:04.153Z,43.03
2022-12-01T13:36:46.224Z,43.15
2022-12-01T13:39:24.465Z,43.66
2022-12-01T13:42:19.598Z,43.53
2022-12-01T13:44:57.358Z,43.38
2022-12-01T13:47:47.059Z,42.72
2022-12-01T13:50:35.376Z,42.54
2022-12-01T13:53:28.955Z,41.98
2022-12-01T13:55:58.499Z,41.94
2022-12-01T13:58:32.282Z,41.77
2022-12-01T14:01:21.261Z,42.43
2022-12-01T14:03:57.860Z,42.45
2022-12-01T14:06:31.388Z,42.97
2022-12-01T14:09:02.382Z,43.65
2022-12-01T14:11:29.478Z,43.17
2022-12-01T14:14:20.016Z,43.30
2022-12-01T14:16:55.208Z,43.19
2022-12-01T14:19:45.074Z,42.95
2022-12-01T14:22:38.180Z,43.28
2022-12-01T14:25:25.587Z,43.75
2022-12-01T14:28:02.683Z,43.62
2022-12-01T14:30:41.479Z,43.94
2022-12-01T14:33:56.143Z,44.00
2022-12-01T14:36:41.828Z,44.08
2022-12-01T14:39:08.352Z,44.09
2022-12-01T14:41:42.180Z,44.25
2022-12-01T14:44:32.284Z,44.49
2022-12-01T14:47:16.853Z,44.50
2022-12-01T14:50:03.269Z,44.07
2022-12-01T14:52:37.672Z,44.08
2022-12-01T14:55:08.117Z,45.37
2022-12-01T14:57:37.762Z,45.07
2022-12-01T15:00:08.750Z,44.54
2022-12-01T15:02:38.926Z,44.45
2022-12-01T15:05:11.315Z,44.59
2022-12-01T15:07:39.211Z,44.86
2022-12-01T15:10:06.660Z,44.49
2022-12-01T15:12:33.295Z,44.60
2022-12-01T15:14:59.924Z,44.42
2022-12-01T15:17:33.370Z,45.03
2022-12-01T15:20:00.636Z,45.12
2022-12-01T15:22:30.932Z,44.95
2022-12-01T15:25:08.451Z,44.96
2022-12-01T15:27:35.133Z,45.42
2022-12-01T15:30:01.764Z,45.32
2022-12-01T15:32:28.444Z,45.12
2022-12-01T15:34:55.310Z,45.07
2022-12-01T15:37:22.930Z,45.34
2022-12-01T15:39:51.512Z,45.14
2022-12-01T15:42:31.567Z,44.45
2022-12-01T15:45:04.017Z,44.60
2022-12-01T15:47:32.773Z,44.08
2022-12-01T15:49:59.373Z,44.74
2022-12-01T15:52:26.037Z,44.56
2022-12-01T15:54:52.898Z,44.97
2022-12-01T15:57:20.146Z,45.40
2022-12-01T15:59:51.012Z,45.38
2022-12-01T16:02:20.524Z,45.42
2022-12-01T16:04:47.748Z,45.36
2022-12-01T16:07:14.477Z,45.33
2022-12-01T16:09:42.623Z,45.38
2022-12-01T16:12:09.179Z,45.52
2022-12-01T16:14:36.486Z,46.33
2022-12-01T16:17:03.976Z,46.44
2022-12-01T16:19:31.366Z,45.86
2022-12-01T16:22:18.628Z,46.09
2022-12-01T16:24:50.187Z,45.82
2022-12-01T16:27:24.049Z,46.39
2022-12-01T16:29:56.359Z,46.36
2022-12-01T16:32:39.403Z,46.43
2022-12-01T16:35:07.240Z,45.86
2022-12-01T16:37:33.872Z,46.58
2022-12-01T16:40:00.581Z,46.78
2022-12-01T16:42:27.308Z,46.51
2022-12-01T16:44:54.170Z,46.33
2022-12-01T16:47:24.644Z,46.70
2022-12-01T16:49:51.809Z,46.92
2022-12-01T16:55:06.037Z,47.37
2022-12-01T16:57:32.728Z,47.22
2022-12-01T16:59:59.453Z,47.04
2022-12-01T17:02:26.129Z,47.35
2022-12-01T17:04:53.032Z,48.19
2022-12-01T17:07:19.891Z,48.21
2022-12-01T17:09:47.758Z,48.18
2022-12-01T17:12:14.373Z,48.09
2022-12-01T17:14:41.026Z,48.32
2022-12-01T17:17:07.699Z,48.19
2022-12-01T17:19:34.346Z,48.30
2022-12-01T17:22:00.988Z,48.22
2022-12-01T17:24:27.633Z,48.17
2022-12-01T17:26:54.282Z,48.35
2022-12-01T17:29:20.985Z,48.63
2022-12-01T17:31:47.707Z,48.44
2022-12-01T17:34:14.399Z,47.89
2022-12-01T17:36:41.106Z,47.83
2022-12-01T17:39:07.719Z,47.86
2022-12-01T17:41:34.398Z,47.04
2022-12-01T17:44:04.268Z,47.07
2022-12-01T17:46:31.319Z,47.72
2022-12-01T17:48:58.451Z,47.67
2022-12-01T17:51:25.122Z,46.80
2022-12-01T17:53:53.278Z,47.33
2022-12-01T17:56:19.869Z,46.58
2022-12-01T17:58:46.506Z,46.30
2022-12-01T18:01:14.529Z,46.24
2022-12-01T18:03:41.144Z,46.13
2022-12-01T18:06:07.882Z,47.12
2022-12-01T18:08:34.823Z,45.93
2022-12-01T18:11:02.070Z,45.97
2022-12-01T18:13:28.710Z,46.40
2022-12-01T18:15:55.417Z,47.77
2022-12-01T18:18:22.040Z,45.49
2022-12-01T18:20:48.664Z,44.59
2022-12-01T18:23:15.307Z,44.77
2022-12-01T18:25:41.972Z,47.66
2022-12-01T18:28:08.628Z,46.37
2022-12-01T18:30:35.298Z,47.68
2022-12-01T18:33:01.965Z,45.99
2022-12-01T18:35:31.709Z,45.58
2022-12-01T18:37:58.646Z,45.36
2022-12-01T18:40:25.313Z,45.13
2022-12-01T18:42:51.955Z,45.25
2022-12-01T18:45:21.314Z,45.07
2022-12-01T18:47:48.268Z,45.62
2022-12-01T18:50:15.053Z,45.95
2022-12-01T18:52:41.703Z,46.94
2022-12-01T18:55:08.630Z,45.97
2022-12-01T18:57:35.241Z,46.59
2022-12-01T19:00:02.604Z,46.02
2022-12-01T19:02:29.320Z,47.13
2022-12-01T19:04:55.990Z,47.52
2022-12-01T19:07:26.600Z,48.20
2022-12-01T19:09:56.374Z,47.30
2022-12-01T19:12:23.017Z,45.87
2022-12-01T19:14:49.969Z,46.31
2022-12-01T19:17:16.936Z,46.39
2022-12-01T19:19:43.600Z,46.46
2022-12-01T19:22:10.381Z,47.22
2022-12-01T19:24:37.101Z,46.19
2022-12-01T19:27:03.748Z,45.36
2022-12-01T19:29:30.502Z,47.07
2022-12-01T19:31:57.338Z,48.83
2022-12-01T19:34:24.010Z,47.14
2022-12-01T19:36:50.614Z,47.34
2022-12-01T19:39:17.304Z,45.67
2022-12-01T19:41:43.905Z,46.37
2022-12-01T19:44:10.627Z,47.34
2022-12-01T19:46:37.334Z,47.85
2022-12-01T19:49:04.292Z,48.49
2022-12-01T19:51:32.709Z,45.66
2022-12-01T19:53:59.323Z,46.08
2022-12-01T19:56:26.002Z,47.21
2022-12-01T19:58:52.705Z,46.82
2022-12-01T20:01:19.694Z,45.84
2022-12-01T20:03:47.517Z,45.46
2022-12-01T20:06:16.436Z,46.01
2022-12-01T20:08:43.357Z,47.71
2022-12-01T20:11:10.099Z,46.76
2022-12-01T20:13:38.273Z,47.42
2022-12-01T20:16:09.457Z,46.42
2022-12-01T20:18:36.367Z,46.27
2022-12-01T20:21:04.647Z,45.50
2022-12-01T20:23:31.293Z,46.05
2022-12-01T20:26:02.382Z,45.32
2022-12-01T20:28:29.165Z,45.79
2022-12-01T20:30:55.837Z,45.46
2022-12-01T20:33:22.499Z,45.75
2022-12-01T20:35:49.190Z,45.20
2022-12-01T20:38:15.799Z,45.37
2022-12-01T20:40:42.440Z,46.00
2022-12-01T20:43:09.086Z,45.71
2022-12-01T20:45:35.725Z,45.93
2022-12-01T20:48:02.497Z,45.92
2022-12-01T20:50:29.184Z,46.04
2022-12-01T20:52:55.830Z,45.76
2022-12-01T20:55:22.440Z,45.92
2022-12-01T20:57:49.096Z,45.93
2022-12-01T21:00:15.990Z,46.30
2022-12-01T21:02:42.716Z,45.77
2022-12-01T21:05:09.539Z,45.38
2022-12-01T21:07:36.207Z,46.31
2022-12-01T21:10:03.516Z,46.35
2022-12-01T21:12:30.188Z,45.99
2022-12-01T21:15:12.112Z,45.92
2022-12-01T21:17:48.285Z,46.10
2022-12-01T21:20:41.445Z,46.07
2022-12-01T21:23:12.417Z,45.91
2022-12-01T21:25:39.440Z,46.07
2022-12-01T21:28:18.416Z,47.76
2022-12-01T21:30:46.744Z,46.17
2022-12-01T21:33:34.286Z,45.56
2022-12-01T21:36:18.384Z,45.27
2022-12-01T21:38:45.089Z,44.99
2022-12-01T21:41:37.649Z,45.19
2022-12-01T21:44:11.475Z,45.59
2022-12-01T21:46:38.073Z,45.10
2022-12-01T21:49:31.450Z,45.65
2022-12-01T21:51:58.170Z,46.28
2022-12-01T21:54:24.798Z,46.68
2022-12-01T21:56:52.587Z,46.98
2022-12-01T21:59:20.516Z,46.38
2022-12-01T22:01:47.968Z,46.69
2022-12-01T22:04:29.551Z,46.40
2022-12-01T22:06:56.702Z,46.05
2022-12-01T22:09:27.518Z,45.91
2022-12-01T22:11:56.208Z,46.35
2022-12-01T22:14:24.441Z,45.50
2022-12-01T22:16:59.814Z,46.29
2022-12-01T22:19:34.061Z,45.85
2022-12-01T22:22:09.763Z,45.58
2022-12-01T22:24:43.499Z,46.16
2022-12-01T22:27:38.452Z,46.78
2022-12-01T22:30:07.902Z,45.04
2022-12-01T22:32:56.978Z,45.55
2022-12-01T22:35:28.363Z,45.41
2022-12-01T22:38:03.708Z,45.09
2022-12-01T22:40:37.835Z,44.67
2022-12-01T22:43:25.014Z,44.29
2022-12-01T22:46:10.486Z,45.01
2022-12-01T22:48:47.078Z,45.00
2022-12-01T22:51:13.570Z,45.22
2022-12-01T22:53:42.159Z,45.24
2022-12-01T22:56:24.084Z,45.16
2022-12-01T22:58:50.763Z,44.42
2022-12-01T23:01:27.834Z,44.79
2022-12-01T23:04:24.258Z,45.07
2022-12-01T23:06:50.745Z,45.20
2022-12-01T23:09:17.346Z,44.45
2022-12-01T23:11:44.568Z,44.82
2022-12-01T23:14:20.195Z,44.86
2022-12-01T23:16:46.814Z,44.83
2022-12-01T23:19:13.430Z,46.82
2022-12-01T23:21:40.059Z,45.72
2022-12-01T23:24:07.021Z,46.00
2022-12-01T23:26:33.747Z,44.88
2022-12-01T23:29:00.418Z,46.16
2022-12-01T23:31:27.163Z,45.76
2022-12-01T23:33:53.882Z,45.82
2022-12-01T23:36:20.386Z,46.42
2022-12-01T23:38:48.183Z,44.76
2022-12-01T23:41:32.810Z,44.26
2022-12-01T23:44:01.409Z,45.96
2022-12-01T23:46:28.096Z,46.38
2022-12-01T23:49:10.071Z,45.43
2022-12-01T23:51:47.989Z,45.26
2022-12-01T23:54:23.967Z,45.22
2022-12-01T23:56:55.175Z,45.85
2022-12-01T23:59:21.808Z,45.81
